Flight Track Log - Related Links

Times and Time Zones

All times are in EDT time to prevent confusion due to time zone crossing. See the PDT4147 flight status page for this flight to view local times or setup timezone preferences in your user account.

Time Position Orientation Groundspeed Altitude Reporting Facility
EDT Latitude Longitude Course Direction KTS MPH feet Rate Location/Type
Wed 03:06:46 PM 35.1928 -80.9306 71° East 146 168 1,500  Level Atlanta Center
Wed 03:07:29 PM 35.1856 -80.8978 105° East 171 197 2,400 1,029 Climbing Atlanta Center
Wed 03:08:31 PM 35.1819 -80.8369 94° East 187 215 3,300 878 Climbing Atlanta Center
Wed 03:09:32 PM 35.1822 -80.7683 90° East 194 223 4,200 878 Climbing Atlanta Center
Wed 03:10:34 PM 35.1844 -80.6944 88° East 208 239 5,100 984 Climbing Atlanta Center
Wed 03:11:34 PM 35.2100 -80.6375 61° Northeast 197 227 6,200 942 Climbing Atlanta Center
Wed 03:12:00 PM 35.3374 -80.4931 71° East  Level FlightAware Approximate
Wed 03:12:35 PM 35.2397 -80.5778 59° Northeast 201 231 7,000  Level Atlanta Center
Wed 03:13:37 PM 35.2672 -80.5156 62° Northeast 207 238 7,900 488 Climbing Atlanta Center
Wed 03:14:38 PM 35.3025 -80.4428 59° Northeast 238 274 8,000 98 Climbing Atlanta Center
Wed 03:16:00 PM 35.3453 -80.3473 61° Northeast  Level FlightAware Approximate
Wed 03:23:00 PM 35.6816 -80.0824 North  Level FlightAware Approximate
Wed 03:24:00 PM 35.7466 -80.0775 North  Level FlightAware Approximate
Wed 03:25:00 PM 35.8331 -80.0709 North  Level FlightAware Approximate
Wed 03:26:00 PM 35.9197 -80.0642 North  Level FlightAware Approximate
Wed 03:27:00 PM 36.0063 -80.0576 North  Level FlightAware Approximate
Wed 03:28:00 PM 36.0929 -80.0509 North  Level FlightAware Approximate
Wed 03:29:00 PM 36.1795 -80.0443 North  Level FlightAware Approximate
Wed 03:30:00 PM 36.2660 -80.0376 North  Level FlightAware Approximate
Wed 03:31:00 PM 36.3526 -80.0309 North  Level FlightAware Approximate
Wed 03:32:00 PM 36.4392 -80.0242 North  Level FlightAware Approximate
Wed 03:33:00 PM 36.5258 -80.0175 North  Level FlightAware Approximate
Wed 03:34:00 PM 36.6124 -80.0107 North  Level FlightAware Approximate
Wed 03:35:00 PM 36.6989 -80.0040 North  Level FlightAware Approximate
Wed 03:36:00 PM 36.7856 -80.0000 North  Level FlightAware Approximate
Wed 03:37:00 PM 36.8723 -80.0000 North  Level FlightAware Approximate
Wed 03:38:00 PM 36.9582 -79.9917 15° North  Level FlightAware Approximate
Wed 03:39:00 PM 37.0441 -79.9833 North  Level FlightAware Approximate
Wed 03:40:00 PM 37.1308 -79.9833 North  Level FlightAware Approximate
Wed 03:41:00 PM 37.2171 -79.9766 North  Level FlightAware Approximate
Wed 03:42:00 PM 37.3032 -79.9667 North  Level FlightAware Approximate
Wed 03:43:00 PM 37.3167 -79.9667 North  Level FlightAware Approximate
Wed 03:44:00 PM 37.3255 -79.9754 North  Level Estimated
Wed 03:45:00 PM 37.3255 -79.9754 North  Level Estimated
Wed 03:46:00 PM 37.3255 -79.9754 North  Level Estimated
Wed 03:47:00 PM 37.3255 -79.9754 North  Level Estimated

Login

Don't have an account? Register now (free) for customized features, flight alerts, and more!